sensor_id;sensor_type;location;lat;lon;timestamp;P1;durP1;ratioP1;P2;durP2;ratioP2
51489;SDS011;57752;53.574;9.736;2022-11-15T00:04:28;79.40;;;34.13;;
51489;SDS011;57752;53.574;9.736;2022-11-15T00:09:29;80.85;;;34.10;;
51489;SDS011;57752;53.574;9.736;2022-11-15T00:14:29;76.68;;;32.85;;
51489;SDS011;57752;53.574;9.736;2022-11-15T00:19:29;82.43;;;35.60;;
51489;SDS011;57752;53.574;9.736;2022-11-15T00:24:29;87.70;;;34.95;;
51489;SDS011;57752;53.574;9.736;2022-11-15T00:29:30;73.85;;;33.58;;
51489;SDS011;57752;53.574;9.736;2022-11-15T00:34:33;76.88;;;34.05;;
51489;SDS011;57752;53.574;9.736;2022-11-15T00:39:34;76.80;;;33.15;;
51489;SDS011;57752;53.574;9.736;2022-11-15T00:44:35;66.45;;;30.63;;
51489;SDS011;57752;53.574;9.736;2022-11-15T00:49:35;68.07;;;30.98;;
51489;SDS011;57752;53.574;9.736;2022-11-15T00:54:36;68.55;;;31.83;;
51489;SDS011;57752;53.574;9.736;2022-11-15T00:59:36;63.57;;;30.10;;
51489;SDS011;57752;53.574;9.736;2022-11-15T01:04:38;56.03;;;28.23;;
51489;SDS011;57752;53.574;9.736;2022-11-15T01:09:39;59.40;;;29.30;;
51489;SDS011;57752;53.574;9.736;2022-11-15T01:14:40;62.08;;;28.52;;
51489;SDS011;57752;53.574;9.736;2022-11-15T01:19:40;61.23;;;26.57;;
51489;SDS011;57752;53.574;9.736;2022-11-15T01:24:41;63.75;;;29.38;;
51489;SDS011;57752;53.574;9.736;2022-11-15T01:35:15;67.22;;;30.70;;
51489;SDS011;57752;53.574;9.736;2022-11-15T01:40:17;63.67;;;28.67;;
51489;SDS011;57752;53.574;9.736;2022-11-15T01:45:17;65.30;;;29.48;;
51489;SDS011;57752;53.574;9.736;2022-11-15T01:50:20;72.60;;;30.25;;
51489;SDS011;57752;53.574;9.736;2022-11-15T01:55:24;66.50;;;29.38;;
51489;SDS011;57752;53.574;9.736;2022-11-15T02:05:28;69.15;;;28.13;;
51489;SDS011;57752;53.574;9.736;2022-11-15T02:10:30;62.88;;;28.02;;
51489;SDS011;57752;53.574;9.736;2022-11-15T02:15:33;75.60;;;29.85;;
51489;SDS011;57752;53.574;9.736;2022-11-15T02:37:00;75.20;;;30.95;;
51489;SDS011;57752;53.574;9.736;2022-11-15T02:42:05;71.65;;;29.05;;
51489;SDS011;57752;53.574;9.736;2022-11-15T02:48:04;76.63;;;32.72;;
51489;SDS011;57752;53.574;9.736;2022-11-15T02:53:05;84.18;;;32.33;;
51489;SDS011;57752;53.574;9.736;2022-11-15T03:14:13;83.20;;;32.72;;
51489;SDS011;57752;53.574;9.736;2022-11-15T03:19:33;78.50;;;30.33;;
51489;SDS011;57752;53.574;9.736;2022-11-15T03:24:37;87.38;;;32.28;;
51489;SDS011;57752;53.574;9.736;2022-11-15T03:29:45;85.65;;;32.50;;
51489;SDS011;57752;53.574;9.736;2022-11-15T03:34:50;76.78;;;30.08;;
51489;SDS011;57752;53.574;9.736;2022-11-15T03:39:52;71.43;;;29.33;;
51489;SDS011;57752;53.574;9.736;2022-11-15T03:45:11;70.47;;;30.17;;
51489;SDS011;57752;53.574;9.736;2022-11-15T03:50:16;63.67;;;27.52;;
51489;SDS011;57752;53.574;9.736;2022-11-15T03:55:19;69.75;;;27.80;;
51489;SDS011;57752;53.574;9.736;2022-11-15T04:00:20;57.90;;;26.70;;
51489;SDS011;57752;53.574;9.736;2022-11-15T04:05:20;71.93;;;28.33;;
51489;SDS011;57752;53.574;9.736;2022-11-15T04:10:21;68.40;;;27.83;;
51489;SDS011;57752;53.574;9.736;2022-11-15T04:15:21;72.75;;;30.10;;
51489;SDS011;57752;53.574;9.736;2022-11-15T04:20:24;69.57;;;28.35;;
51489;SDS011;57752;53.574;9.736;2022-11-15T04:25:44;60.97;;;26.38;;
51489;SDS011;57752;53.574;9.736;2022-11-15T04:30:45;55.33;;;25.15;;
51489;SDS011;57752;53.574;9.736;2022-11-15T04:35:45;56.97;;;27.00;;
51489;SDS011;57752;53.574;9.736;2022-11-15T04:41:05;58.20;;;24.30;;
51489;SDS011;57752;53.574;9.736;2022-11-15T04:46:06;53.97;;;24.75;;
51489;SDS011;57752;53.574;9.736;2022-11-15T04:51:06;52.17;;;23.88;;
51489;SDS011;57752;53.574;9.736;2022-11-15T04:56:07;53.50;;;24.90;;
51489;SDS011;57752;53.574;9.736;2022-11-15T05:01:11;51.53;;;25.23;;
51489;SDS011;57752;53.574;9.736;2022-11-15T05:06:14;51.97;;;25.38;;
51489;SDS011;57752;53.574;9.736;2022-11-15T05:11:14;50.83;;;22.50;;
51489;SDS011;57752;53.574;9.736;2022-11-15T05:16:15;49.60;;;22.50;;
51489;SDS011;57752;53.574;9.736;2022-11-15T05:21:15;45.70;;;21.08;;
51489;SDS011;57752;53.574;9.736;2022-11-15T05:26:16;40.03;;;19.67;;
51489;SDS011;57752;53.574;9.736;2022-11-15T05:31:17;45.38;;;22.45;;
51489;SDS011;57752;53.574;9.736;2022-11-15T05:46:46;48.13;;;22.70;;
51489;SDS011;57752;53.574;9.736;2022-11-15T05:51:47;48.30;;;23.40;;
51489;SDS011;57752;53.574;9.736;2022-11-15T05:56:48;47.13;;;22.25;;
51489;SDS011;57752;53.574;9.736;2022-11-15T06:01:50;47.42;;;25.20;;
51489;SDS011;57752;53.574;9.736;2022-11-15T06:06:50;47.58;;;23.73;;
51489;SDS011;57752;53.574;9.736;2022-11-15T06:11:50;46.28;;;24.20;;
51489;SDS011;57752;53.574;9.736;2022-11-15T06:16:51;44.77;;;22.20;;
51489;SDS011;57752;53.574;9.736;2022-11-15T06:21:51;43.15;;;22.08;;
51489;SDS011;57752;53.574;9.736;2022-11-15T06:26:51;41.28;;;20.48;;
51489;SDS011;57752;53.574;9.736;2022-11-15T06:31:52;42.73;;;21.10;;
51489;SDS011;57752;53.574;9.736;2022-11-15T06:36:53;40.03;;;20.35;;
51489;SDS011;57752;53.574;9.736;2022-11-15T06:41:53;42.35;;;20.65;;
51489;SDS011;57752;53.574;9.736;2022-11-15T06:46:53;38.28;;;20.88;;
51489;SDS011;57752;53.574;9.736;2022-11-15T06:51:54;39.38;;;20.23;;
51489;SDS011;57752;53.574;9.736;2022-11-15T06:56:54;41.30;;;22.08;;
51489;SDS011;57752;53.574;9.736;2022-11-15T07:01:54;39.63;;;20.90;;
51489;SDS011;57752;53.574;9.736;2022-11-15T07:06:55;40.93;;;21.00;;
51489;SDS011;57752;53.574;9.736;2022-11-15T07:11:55;39.67;;;19.77;;
51489;SDS011;57752;53.574;9.736;2022-11-15T07:16:55;41.25;;;21.23;;
51489;SDS011;57752;53.574;9.736;2022-11-15T07:21:55;37.72;;;20.95;;
51489;SDS011;57752;53.574;9.736;2022-11-15T07:26:56;40.15;;;19.83;;
51489;SDS011;57752;53.574;9.736;2022-11-15T07:31:57;35.75;;;18.20;;
51489;SDS011;57752;53.574;9.736;2022-11-15T07:36:57;39.30;;;18.65;;
51489;SDS011;57752;53.574;9.736;2022-11-15T07:41:59;34.43;;;19.07;;
51489;SDS011;57752;53.574;9.736;2022-11-15T07:47:18;38.65;;;18.42;;
51489;SDS011;57752;53.574;9.736;2022-11-15T07:52:18;32.85;;;17.48;;
51489;SDS011;57752;53.574;9.736;2022-11-15T07:57:19;34.95;;;18.27;;
51489;SDS011;57752;53.574;9.736;2022-11-15T08:02:20;38.40;;;18.88;;
51489;SDS011;57752;53.574;9.736;2022-11-15T08:07:20;35.05;;;17.65;;
51489;SDS011;57752;53.574;9.736;2022-11-15T08:12:21;34.47;;;15.97;;
51489;SDS011;57752;53.574;9.736;2022-11-15T08:17:27;33.13;;;17.33;;
51489;SDS011;57752;53.574;9.736;2022-11-15T08:22:33;34.47;;;16.88;;
51489;SDS011;57752;53.574;9.736;2022-11-15T08:27:36;33.60;;;17.63;;
51489;SDS011;57752;53.574;9.736;2022-11-15T08:32:40;32.97;;;16.80;;
51489;SDS011;57752;53.574;9.736;2022-11-15T08:37:40;33.53;;;17.10;;
51489;SDS011;57752;53.574;9.736;2022-11-15T08:42:40;37.15;;;17.60;;
51489;SDS011;57752;53.574;9.736;2022-11-15T08:47:41;27.52;;;15.73;;
51489;SDS011;57752;53.574;9.736;2022-11-15T08:52:41;29.05;;;15.65;;
51489;SDS011;57752;53.574;9.736;2022-11-15T08:57:41;31.88;;;16.75;;
51489;SDS011;57752;53.574;9.736;2022-11-15T09:02:42;32.83;;;15.95;;
51489;SDS011;57752;53.574;9.736;2022-11-15T09:07:42;38.77;;;16.77;;
51489;SDS011;57752;53.574;9.736;2022-11-15T09:12:43;36.40;;;16.95;;
51489;SDS011;57752;53.574;9.736;2022-11-15T09:17:43;34.88;;;16.60;;
51489;SDS011;57752;53.574;9.736;2022-11-15T09:22:43;29.05;;;16.20;;
51489;SDS011;57752;53.574;9.736;2022-11-15T09:27:44;28.98;;;14.93;;
51489;SDS011;57752;53.574;9.736;2022-11-15T09:32:44;28.90;;;14.88;;
51489;SDS011;57752;53.574;9.736;2022-11-15T09:37:44;27.95;;;14.40;;
51489;SDS011;57752;53.574;9.736;2022-11-15T09:48:01;27.02;;;14.77;;
51489;SDS011;57752;53.574;9.736;2022-11-15T09:53:03;28.23;;;14.93;;
51489;SDS011;57752;53.574;9.736;2022-11-15T09:58:26;24.67;;;13.75;;
51489;SDS011;57752;53.574;9.736;2022-11-15T10:03:28;27.83;;;14.75;;
51489;SDS011;57752;53.574;9.736;2022-11-15T10:08:34;26.90;;;14.55;;
51489;SDS011;57752;53.574;9.736;2022-11-15T10:13:36;30.27;;;14.68;;
51489;SDS011;57752;53.574;9.736;2022-11-15T10:24:06;28.25;;;14.70;;
51489;SDS011;57752;53.574;9.736;2022-11-15T10:29:10;30.70;;;15.80;;
51489;SDS011;57752;53.574;9.736;2022-11-15T10:34:15;29.90;;;14.90;;
51489;SDS011;57752;53.574;9.736;2022-11-15T10:39:20;28.85;;;15.32;;
51489;SDS011;57752;53.574;9.736;2022-11-15T10:44:21;29.98;;;15.13;;
51489;SDS011;57752;53.574;9.736;2022-11-15T10:49:32;30.70;;;15.35;;
51489;SDS011;57752;53.574;9.736;2022-11-15T10:54:35;28.58;;;14.55;;
51489;SDS011;57752;53.574;9.736;2022-11-15T10:59:37;25.10;;;14.48;;
51489;SDS011;57752;53.574;9.736;2022-11-15T11:04:50;28.17;;;15.48;;
51489;SDS011;57752;53.574;9.736;2022-11-15T11:14:59;28.70;;;14.57;;
51489;SDS011;57752;53.574;9.736;2022-11-15T11:20:10;25.27;;;13.55;;
51489;SDS011;57752;53.574;9.736;2022-11-15T11:31:00;24.95;;;14.02;;
51489;SDS011;57752;53.574;9.736;2022-11-15T11:36:21;25.25;;;13.10;;
51489;SDS011;57752;53.574;9.736;2022-11-15T11:47:01;24.23;;;11.93;;
51489;SDS011;57752;53.574;9.736;2022-11-15T11:52:33;24.40;;;11.63;;
51489;SDS011;57752;53.574;9.736;2022-11-15T12:08:01;22.70;;;12.10;;
51489;SDS011;57752;53.574;9.736;2022-11-15T12:13:06;27.33;;;13.82;;
51489;SDS011;57752;53.574;9.736;2022-11-15T12:18:12;26.23;;;13.98;;
51489;SDS011;57752;53.574;9.736;2022-11-15T12:23:16;25.55;;;14.00;;
51489;SDS011;57752;53.574;9.736;2022-11-15T12:28:24;28.58;;;14.98;;
51489;SDS011;57752;53.574;9.736;2022-11-15T12:33:39;27.50;;;14.43;;
51489;SDS011;57752;53.574;9.736;2022-11-15T12:38:56;26.38;;;13.73;;
51489;SDS011;57752;53.574;9.736;2022-11-15T12:43:58;25.10;;;14.55;;
51489;SDS011;57752;53.574;9.736;2022-11-15T12:59:47;25.67;;;13.83;;
51489;SDS011;57752;53.574;9.736;2022-11-15T13:04:42;26.88;;;13.35;;
51489;SDS011;57752;53.574;9.736;2022-11-15T13:14:47;23.52;;;12.32;;
51489;SDS011;57752;53.574;9.736;2022-11-15T13:24:59;24.45;;;11.27;;
51489;SDS011;57752;53.574;9.736;2022-11-15T13:30:00;24.80;;;11.90;;
51489;SDS011;57752;53.574;9.736;2022-11-15T13:35:00;24.33;;;11.70;;
51489;SDS011;57752;53.574;9.736;2022-11-15T13:40:16;22.00;;;11.20;;
51489;SDS011;57752;53.574;9.736;2022-11-15T13:45:18;22.20;;;11.27;;
51489;SDS011;57752;53.574;9.736;2022-11-15T13:50:20;28.05;;;11.18;;
51489;SDS011;57752;53.574;9.736;2022-11-15T13:55:21;30.63;;;12.10;;
51489;SDS011;57752;53.574;9.736;2022-11-15T14:05:34;25.10;;;11.80;;
51489;SDS011;57752;53.574;9.736;2022-11-15T14:10:35;26.20;;;11.98;;
51489;SDS011;57752;53.574;9.736;2022-11-15T14:15:37;24.85;;;12.80;;
51489;SDS011;57752;53.574;9.736;2022-11-15T14:20:38;26.27;;;12.60;;
51489;SDS011;57752;53.574;9.736;2022-11-15T14:25:38;26.92;;;12.52;;
51489;SDS011;57752;53.574;9.736;2022-11-15T14:30:39;31.10;;;13.15;;
51489;SDS011;57752;53.574;9.736;2022-11-15T14:35:39;26.38;;;12.38;;
51489;SDS011;57752;53.574;9.736;2022-11-15T14:40:40;24.77;;;12.63;;
51489;SDS011;57752;53.574;9.736;2022-11-15T14:45:40;26.52;;;13.43;;
51489;SDS011;57752;53.574;9.736;2022-11-15T14:50:40;24.92;;;13.02;;
51489;SDS011;57752;53.574;9.736;2022-11-15T14:55:41;28.40;;;14.40;;
51489;SDS011;57752;53.574;9.736;2022-11-15T15:00:41;27.63;;;13.25;;
51489;SDS011;57752;53.574;9.736;2022-11-15T15:05:42;24.38;;;12.43;;
51489;SDS011;57752;53.574;9.736;2022-11-15T15:10:43;27.83;;;12.70;;
51489;SDS011;57752;53.574;9.736;2022-11-15T15:15:44;21.15;;;12.35;;
51489;SDS011;57752;53.574;9.736;2022-11-15T15:20:44;26.58;;;12.90;;
51489;SDS011;57752;53.574;9.736;2022-11-15T15:25:47;23.45;;;12.20;;
51489;SDS011;57752;53.574;9.736;2022-11-15T15:30:48;26.45;;;12.45;;
51489;SDS011;57752;53.574;9.736;2022-11-15T15:35:49;26.10;;;12.68;;
51489;SDS011;57752;53.574;9.736;2022-11-15T15:40:49;26.90;;;12.85;;
51489;SDS011;57752;53.574;9.736;2022-11-15T15:45:49;27.85;;;14.38;;
51489;SDS011;57752;53.574;9.736;2022-11-15T15:50:50;27.63;;;14.05;;
51489;SDS011;57752;53.574;9.736;2022-11-15T15:55:50;29.45;;;15.77;;
51489;SDS011;57752;53.574;9.736;2022-11-15T16:00:50;27.42;;;15.10;;
51489;SDS011;57752;53.574;9.736;2022-11-15T16:05:50;29.65;;;13.88;;
51489;SDS011;57752;53.574;9.736;2022-11-15T16:10:51;28.85;;;14.65;;
51489;SDS011;57752;53.574;9.736;2022-11-15T16:15:52;31.70;;;15.45;;
51489;SDS011;57752;53.574;9.736;2022-11-15T16:20:52;28.83;;;14.52;;
51489;SDS011;57752;53.574;9.736;2022-11-15T16:25:56;23.35;;;12.90;;
51489;SDS011;57752;53.574;9.736;2022-11-15T16:31:00;25.35;;;12.55;;
51489;SDS011;57752;53.574;9.736;2022-11-15T16:36:01;23.52;;;11.82;;
51489;SDS011;57752;53.574;9.736;2022-11-15T16:41:01;25.67;;;13.77;;
51489;SDS011;57752;53.574;9.736;2022-11-15T16:46:06;22.05;;;12.13;;
51489;SDS011;57752;53.574;9.736;2022-11-15T16:51:06;26.10;;;12.85;;
51489;SDS011;57752;53.574;9.736;2022-11-15T17:01:23;26.40;;;13.47;;
51489;SDS011;57752;53.574;9.736;2022-11-15T17:06:24;24.90;;;12.85;;
51489;SDS011;57752;53.574;9.736;2022-11-15T17:11:24;26.13;;;13.27;;
51489;SDS011;57752;53.574;9.736;2022-11-15T17:16:25;24.98;;;13.65;;
51489;SDS011;57752;53.574;9.736;2022-11-15T17:21:25;23.35;;;12.93;;
51489;SDS011;57752;53.574;9.736;2022-11-15T17:26:27;22.77;;;12.73;;
51489;SDS011;57752;53.574;9.736;2022-11-15T17:31:27;29.73;;;13.52;;
51489;SDS011;57752;53.574;9.736;2022-11-15T17:36:29;28.13;;;13.40;;
51489;SDS011;57752;53.574;9.736;2022-11-15T17:41:30;27.65;;;13.30;;
51489;SDS011;57752;53.574;9.736;2022-11-15T17:46:30;28.45;;;13.27;;
51489;SDS011;57752;53.574;9.736;2022-11-15T17:51:30;27.52;;;13.98;;
51489;SDS011;57752;53.574;9.736;2022-11-15T17:56:30;28.87;;;14.20;;
51489;SDS011;57752;53.574;9.736;2022-11-15T18:01:31;24.77;;;13.30;;
51489;SDS011;57752;53.574;9.736;2022-11-15T18:06:32;24.55;;;12.77;;
51489;SDS011;57752;53.574;9.736;2022-11-15T18:11:34;27.05;;;13.25;;
51489;SDS011;57752;53.574;9.736;2022-11-15T18:16:39;25.55;;;13.02;;
51489;SDS011;57752;53.574;9.736;2022-11-15T18:21:40;24.80;;;12.77;;
51489;SDS011;57752;53.574;9.736;2022-11-15T18:26:57;25.23;;;13.02;;
51489;SDS011;57752;53.574;9.736;2022-11-15T18:31:57;26.40;;;13.23;;
51489;SDS011;57752;53.574;9.736;2022-11-15T18:36:58;24.48;;;14.23;;
51489;SDS011;57752;53.574;9.736;2022-11-15T18:41:58;21.50;;;12.18;;
51489;SDS011;57752;53.574;9.736;2022-11-15T18:46:58;24.83;;;12.43;;
51489;SDS011;57752;53.574;9.736;2022-11-15T18:52:00;25.35;;;12.52;;
51489;SDS011;57752;53.574;9.736;2022-11-15T18:57:00;23.23;;;11.68;;
51489;SDS011;57752;53.574;9.736;2022-11-15T19:02:01;23.65;;;12.55;;
51489;SDS011;57752;53.574;9.736;2022-11-15T19:07:01;23.08;;;11.77;;
51489;SDS011;57752;53.574;9.736;2022-11-15T19:12:02;22.65;;;11.18;;
51489;SDS011;57752;53.574;9.736;2022-11-15T19:17:02;24.40;;;11.93;;
51489;SDS011;57752;53.574;9.736;2022-11-15T19:22:02;24.35;;;12.05;;
51489;SDS011;57752;53.574;9.736;2022-11-15T19:27:02;23.05;;;12.48;;
51489;SDS011;57752;53.574;9.736;2022-11-15T19:32:03;24.47;;;12.03;;
51489;SDS011;57752;53.574;9.736;2022-11-15T19:37:04;23.70;;;11.57;;
51489;SDS011;57752;53.574;9.736;2022-11-15T19:42:04;26.92;;;13.00;;
51489;SDS011;57752;53.574;9.736;2022-11-15T19:47:04;24.10;;;12.60;;
51489;SDS011;57752;53.574;9.736;2022-11-15T19:52:08;27.00;;;13.70;;
51489;SDS011;57752;53.574;9.736;2022-11-15T19:57:08;22.75;;;12.07;;
51489;SDS011;57752;53.574;9.736;2022-11-15T20:02:10;23.95;;;12.27;;
51489;SDS011;57752;53.574;9.736;2022-11-15T20:07:10;26.87;;;12.97;;
51489;SDS011;57752;53.574;9.736;2022-11-15T20:12:11;21.20;;;12.00;;
51489;SDS011;57752;53.574;9.736;2022-11-15T20:17:11;27.42;;;13.85;;
51489;SDS011;57752;53.574;9.736;2022-11-15T20:22:11;22.77;;;11.80;;
51489;SDS011;57752;53.574;9.736;2022-11-15T20:27:11;25.50;;;13.07;;
51489;SDS011;57752;53.574;9.736;2022-11-15T20:32:11;24.55;;;13.23;;
51489;SDS011;57752;53.574;9.736;2022-11-15T20:37:11;28.60;;;12.95;;
51489;SDS011;57752;53.574;9.736;2022-11-15T20:42:12;26.10;;;14.05;;
51489;SDS011;57752;53.574;9.736;2022-11-15T20:47:12;27.58;;;13.63;;
51489;SDS011;57752;53.574;9.736;2022-11-15T20:52:12;27.10;;;12.57;;
51489;SDS011;57752;53.574;9.736;2022-11-15T20:57:14;27.13;;;13.68;;
51489;SDS011;57752;53.574;9.736;2022-11-15T21:02:15;26.30;;;14.20;;
51489;SDS011;57752;53.574;9.736;2022-11-15T21:07:15;26.10;;;13.95;;
51489;SDS011;57752;53.574;9.736;2022-11-15T21:12:16;26.30;;;13.77;;
51489;SDS011;57752;53.574;9.736;2022-11-15T21:17:19;29.03;;;14.37;;
51489;SDS011;57752;53.574;9.736;2022-11-15T21:22:20;31.35;;;15.43;;
51489;SDS011;57752;53.574;9.736;2022-11-15T21:27:20;28.58;;;15.10;;
51489;SDS011;57752;53.574;9.736;2022-11-15T21:32:21;27.48;;;15.15;;
51489;SDS011;57752;53.574;9.736;2022-11-15T21:37:21;28.90;;;14.25;;
51489;SDS011;57752;53.574;9.736;2022-11-15T21:42:21;28.45;;;15.57;;
51489;SDS011;57752;53.574;9.736;2022-11-15T21:47:21;31.25;;;16.02;;
51489;SDS011;57752;53.574;9.736;2022-11-15T21:52:21;32.00;;;16.35;;
51489;SDS011;57752;53.574;9.736;2022-11-15T21:57:21;28.05;;;15.80;;
51489;SDS011;57752;53.574;9.736;2022-11-15T22:02:22;32.08;;;16.23;;
51489;SDS011;57752;53.574;9.736;2022-11-15T22:07:22;30.25;;;15.77;;
51489;SDS011;57752;53.574;9.736;2022-11-15T22:12:22;34.13;;;16.10;;
51489;SDS011;57752;53.574;9.736;2022-11-15T22:17:22;31.02;;;16.00;;
51489;SDS011;57752;53.574;9.736;2022-11-15T22:22:23;29.70;;;15.52;;
51489;SDS011;57752;53.574;9.736;2022-11-15T22:27:23;30.40;;;15.13;;
51489;SDS011;57752;53.574;9.736;2022-11-15T22:32:23;29.77;;;15.18;;
51489;SDS011;57752;53.574;9.736;2022-11-15T22:37:24;28.83;;;15.43;;
51489;SDS011;57752;53.574;9.736;2022-11-15T22:42:24;31.35;;;16.33;;
51489;SDS011;57752;53.574;9.736;2022-11-15T22:47:24;29.95;;;16.63;;
51489;SDS011;57752;53.574;9.736;2022-11-15T22:52:24;32.35;;;16.27;;
51489;SDS011;57752;53.574;9.736;2022-11-15T22:57:25;30.90;;;17.20;;
51489;SDS011;57752;53.574;9.736;2022-11-15T23:02:25;30.02;;;15.80;;
51489;SDS011;57752;53.574;9.736;2022-11-15T23:07:26;32.60;;;16.15;;
51489;SDS011;57752;53.574;9.736;2022-11-15T23:12:26;33.95;;;16.70;;
51489;SDS011;57752;53.574;9.736;2022-11-15T23:17:45;33.67;;;16.65;;
51489;SDS011;57752;53.574;9.736;2022-11-15T23:22:46;32.83;;;16.73;;
51489;SDS011;57752;53.574;9.736;2022-11-15T23:27:46;36.77;;;17.57;;
51489;SDS011;57752;53.574;9.736;2022-11-15T23:32:46;32.50;;;17.67;;
51489;SDS011;57752;53.574;9.736;2022-11-15T23:38:05;36.03;;;18.70;;
51489;SDS011;57752;53.574;9.736;2022-11-15T23:43:07;38.67;;;19.20;;
51489;SDS011;57752;53.574;9.736;2022-11-15T23:48:08;35.73;;;18.40;;
51489;SDS011;57752;53.574;9.736;2022-11-15T23:53:08;35.53;;;18.35;;
51489;SDS011;57752;53.574;9.736;2022-11-15T23:58:08;37.28;;;18.85;;
